createdAt,value
2019-04-06T00:02:27.885Z,99.90
2019-04-06T00:04:59.626Z,99.90
2019-04-06T00:07:32.551Z,99.90
2019-04-06T00:10:04.231Z,99.90
2019-04-06T00:12:35.943Z,99.90
2019-04-06T00:15:08.429Z,99.90
2019-04-06T00:17:39.997Z,99.90
2019-04-06T00:20:12.290Z,99.90
2019-04-06T00:22:43.717Z,99.90
2019-04-06T00:25:15.675Z,99.90
2019-04-06T00:27:47.722Z,99.90
2019-04-06T00:30:19.842Z,99.90
2019-04-06T00:32:56.480Z,99.90
2019-04-06T00:35:27.988Z,99.90
2019-04-06T00:37:59.777Z,99.90
2019-04-06T00:40:31.477Z,99.90
2019-04-06T00:43:02.880Z,99.90
2019-04-06T00:45:34.468Z,99.90
2019-04-06T00:48:06.436Z,99.90
2019-04-06T00:50:38.242Z,99.90
2019-04-06T00:53:09.675Z,99.90
2019-04-06T00:55:41.830Z,99.90
2019-04-06T00:58:13.945Z,99.90
2019-04-06T01:00:45.267Z,99.90
2019-04-06T01:03:16.757Z,99.90
2019-04-06T01:05:48.156Z,99.90
2019-04-06T01:08:19.093Z,99.90
2019-04-06T01:10:50.509Z,99.90
2019-04-06T01:13:22.078Z,99.90
2019-04-06T01:15:54.028Z,99.90
2019-04-06T01:18:25.764Z,99.90
2019-04-06T01:20:57.290Z,99.90
2019-04-06T01:23:29.433Z,99.90
2019-04-06T01:26:06.951Z,99.90
2019-04-06T01:28:34.118Z,99.90
2019-04-06T01:31:05.417Z,99.90
2019-04-06T01:33:37.346Z,99.90
2019-04-06T01:36:08.604Z,99.90
2019-04-06T01:38:40.513Z,99.90
2019-04-06T01:41:12.362Z,99.90
2019-04-06T01:43:44.232Z,99.90
2019-04-06T01:46:15.903Z,99.90
2019-04-06T01:48:47.616Z,99.90
2019-04-06T01:51:22.561Z,99.90
2019-04-06T01:53:54.671Z,99.90
2019-04-06T01:56:26.328Z,99.90
2019-04-06T01:58:58.437Z,99.90
2019-04-06T02:01:52.147Z,99.90
2019-04-06T02:04:23.680Z,99.90
2019-04-06T02:06:54.603Z,99.90
2019-04-06T02:09:27.287Z,99.90
2019-04-06T02:11:58.734Z,99.90
2019-04-06T02:14:30.200Z,99.90
2019-04-06T02:17:01.664Z,99.90
2019-04-06T02:19:34.416Z,99.90
2019-04-06T02:22:06.642Z,99.90
2019-04-06T02:24:38.611Z,99.90
2019-04-06T02:27:12.729Z,99.90
2019-04-06T02:29:45.236Z,99.90
2019-04-06T02:32:32.271Z,99.90
2019-04-06T02:35:23.718Z,99.90
2019-04-06T02:38:22.956Z,99.90
2019-04-06T02:41:09.140Z,99.90
2019-04-06T02:43:41.184Z,99.90
2019-04-06T02:46:13.117Z,99.90
2019-04-06T02:48:45.314Z,99.90
2019-04-06T02:51:16.799Z,99.90
2019-04-06T02:53:49.148Z,99.90
2019-04-06T02:56:21.957Z,99.90
2019-04-06T02:58:53.693Z,99.90
2019-04-06T03:01:24.961Z,99.90
2019-04-06T03:03:56.151Z,99.90
2019-04-06T03:06:28.179Z,99.90
2019-04-06T03:08:59.296Z,99.90
2019-04-06T03:11:33.316Z,99.90
2019-04-06T03:14:04.605Z,99.90
2019-04-06T03:16:37.368Z,99.90
2019-04-06T03:19:10.503Z,99.90
2019-04-06T03:21:41.796Z,99.90
2019-04-06T03:24:13.846Z,99.90
2019-04-06T03:26:59.271Z,99.90
2019-04-06T03:29:17.945Z,99.90
2019-04-06T03:31:49.709Z,99.90
2019-04-06T03:34:22.450Z,99.90
2019-04-06T03:36:54.841Z,99.90
2019-04-06T03:39:26.063Z,99.90
2019-04-06T03:42:00.413Z,99.90
2019-04-06T03:44:31.055Z,99.90
2019-04-06T03:47:02.590Z,99.90
2019-04-06T03:49:35.709Z,99.90
2019-04-06T03:52:07.750Z,99.90
2019-04-06T03:54:39.050Z,99.90
2019-04-06T03:57:16.074Z,99.90
2019-04-06T03:59:43.994Z,99.90
2019-04-06T04:02:15.825Z,99.90
2019-04-06T04:04:47.146Z,99.90
2019-04-06T04:07:18.536Z,99.90
2019-04-06T04:09:49.515Z,99.90
2019-04-06T04:12:21.323Z,99.90
2019-04-06T04:14:53.753Z,99.90
2019-04-06T04:17:25.515Z,99.90
2019-04-06T04:19:57.048Z,99.90
2019-04-06T04:22:28.849Z,99.90
2019-04-06T04:25:00.517Z,99.90
2019-04-06T04:27:32.352Z,99.90
2019-04-06T04:30:04.209Z,99.90
2019-04-06T04:32:35.738Z,99.90
2019-04-06T04:35:06.915Z,99.90
2019-04-06T04:37:41.432Z,99.90
2019-04-06T04:40:13.043Z,99.90
2019-04-06T04:42:44.999Z,99.90
2019-04-06T04:45:16.870Z,99.90
2019-04-06T04:47:50.125Z,99.90
2019-04-06T04:50:21.319Z,99.90
2019-04-06T04:52:52.954Z,99.90
2019-04-06T04:55:24.835Z,99.90
2019-04-06T04:57:59.050Z,99.90
2019-04-06T05:00:31.135Z,99.90
2019-04-06T05:03:02.928Z,99.90
2019-04-06T05:05:33.739Z,99.90
2019-04-06T05:08:05.715Z,99.90
2019-04-06T05:10:40.357Z,99.90
2019-04-06T05:13:14.749Z,99.90
2019-04-06T05:16:21.942Z,99.90
2019-04-06T05:18:54.321Z,99.90
2019-04-06T05:21:26.495Z,99.90
2019-04-06T05:23:57.948Z,99.90
2019-04-06T05:26:37.470Z,99.90
2019-04-06T05:29:02.747Z,99.90
2019-04-06T05:31:34.533Z,99.90
2019-04-06T05:34:07.409Z,99.90
2019-04-06T05:36:38.954Z,99.90
2019-04-06T05:39:10.595Z,99.90
2019-04-06T05:41:42.169Z,99.90
2019-04-06T05:44:14.477Z,99.90
2019-04-06T05:46:45.986Z,99.90
2019-04-06T05:49:17.602Z,99.90
2019-04-06T05:51:49.930Z,99.90
2019-04-06T05:54:22.232Z,99.90
2019-04-06T05:56:53.909Z,99.90
2019-04-06T05:59:26.185Z,99.90
2019-04-06T06:01:57.850Z,99.90
2019-04-06T06:04:30.031Z,99.90
2019-04-06T06:07:02.005Z,99.90
2019-04-06T06:09:33.427Z,99.90
2019-04-06T06:12:05.719Z,99.90
2019-04-06T06:14:36.877Z,99.90
2019-04-06T06:17:08.255Z,99.90
2019-04-06T06:19:40.275Z,99.90
2019-04-06T06:22:11.789Z,99.90
2019-04-06T06:24:43.293Z,99.90
2019-04-06T06:27:15.669Z,99.90
2019-04-06T06:29:47.322Z,99.90
2019-04-06T06:32:19.094Z,99.90
2019-04-06T06:34:51.558Z,99.90
2019-04-06T06:37:23.791Z,99.90
2019-04-06T06:39:56.552Z,99.90
2019-04-06T06:42:27.874Z,99.90
2019-04-06T06:44:59.396Z,99.90
2019-04-06T06:47:30.956Z,99.90
2019-04-06T06:50:04.245Z,99.90
2019-04-06T06:52:36.101Z,99.90
2019-04-06T06:55:08.179Z,99.90
2019-04-06T06:57:39.549Z,99.90
2019-04-06T07:00:10.469Z,99.90
2019-04-06T07:02:41.907Z,99.90
2019-04-06T07:05:14.594Z,99.30
2019-04-06T07:07:45.988Z,98.40
2019-04-06T07:10:18.377Z,96.90
2019-04-06T07:12:49.416Z,95.10
2019-04-06T07:15:20.726Z,95.10
2019-04-06T07:17:51.763Z,94.10
2019-04-06T07:20:23.634Z,92.50
2019-04-06T07:22:54.812Z,92.40
2019-04-06T07:25:26.606Z,92.60
2019-04-06T07:27:57.767Z,91.90
2019-04-06T07:30:29.607Z,90.60
2019-04-06T07:33:01.166Z,90.20
2019-04-06T07:35:32.688Z,88.40
2019-04-06T07:38:03.983Z,88.30
2019-04-06T07:40:36.309Z,84.90
2019-04-06T07:43:07.973Z,83.50
2019-04-06T07:45:39.273Z,82.80
2019-04-06T07:48:11.108Z,82.00
2019-04-06T07:50:42.829Z,80.00
2019-04-06T07:53:13.823Z,78.00
2019-04-06T07:55:45.701Z,77.70
2019-04-06T07:58:17.795Z,77.00
2019-04-06T08:00:49.699Z,76.30
2019-04-06T08:03:21.873Z,74.10
2019-04-06T08:05:52.799Z,71.90
2019-04-06T08:08:24.658Z,71.50
2019-04-06T08:10:55.963Z,70.00
2019-04-06T08:13:27.898Z,67.30
2019-04-06T08:15:59.208Z,66.30
2019-04-06T08:18:30.294Z,65.20
2019-04-06T08:21:01.525Z,63.90
2019-04-06T08:23:33.802Z,63.30
2019-04-06T08:26:05.287Z,62.50
2019-04-06T08:28:37.566Z,63.50
2019-04-06T08:31:09.178Z,61.60
2019-04-06T08:33:40.878Z,59.80
2019-04-06T08:36:12.664Z,58.60
2019-04-06T08:38:47.973Z,57.40
2019-04-06T08:41:19.676Z,55.80
2019-04-06T08:43:51.480Z,55.40
2019-04-06T08:46:23.047Z,54.80
2019-04-06T08:48:55.106Z,54.40
2019-04-06T08:51:29.389Z,54.70
2019-04-06T08:54:01.077Z,55.30
2019-04-06T08:56:32.557Z,55.10
2019-04-06T08:59:11.577Z,54.80
2019-04-06T09:01:36.907Z,54.70
2019-04-06T09:04:09.070Z,53.60
2019-04-06T09:06:40.178Z,52.50
2019-04-06T09:09:11.676Z,52.30
2019-04-06T09:11:43.951Z,51.40
2019-04-06T09:14:15.463Z,50.80
2019-04-06T09:16:47.636Z,49.70
2019-04-06T09:19:19.622Z,50.20
2019-04-06T09:21:51.284Z,50.70
2019-04-06T09:24:22.758Z,50.70
2019-04-06T09:26:54.139Z,50.30
2019-04-06T09:29:25.921Z,48.80
2019-04-06T09:31:57.478Z,48.70
2019-04-06T09:34:31.075Z,49.00
2019-04-06T09:37:01.846Z,47.30
2019-04-06T09:39:33.689Z,46.80
2019-04-06T09:42:05.532Z,47.40
2019-04-06T09:44:58.191Z,46.40
2019-04-06T09:47:57.642Z,47.40
2019-04-06T09:50:46.748Z,46.50
2019-04-06T09:53:49.128Z,45.50
2019-04-06T09:56:39.477Z,46.20
2019-04-06T09:59:35.323Z,46.70
2019-04-06T10:02:32.649Z,46.50
2019-04-06T10:05:21.808Z,47.80
2019-04-06T10:08:18.304Z,46.70
2019-04-06T10:11:21.292Z,46.90
2019-04-06T10:14:12.102Z,47.30
2019-04-06T10:17:01.261Z,45.90
2019-04-06T10:19:50.243Z,46.40
2019-04-06T10:22:40.220Z,45.40
2019-04-06T10:25:28.829Z,46.40
2019-04-06T10:28:10.473Z,45.30
2019-04-06T10:30:54.017Z,45.70
2019-04-06T10:33:38.236Z,45.00
2019-04-06T10:36:42.293Z,45.60
2019-04-06T10:39:27.755Z,45.20
2019-04-06T10:42:21.507Z,44.90
2019-04-06T10:45:25.330Z,43.70
2019-04-06T10:48:15.764Z,44.20
2019-04-06T10:51:06.373Z,45.20
2019-04-06T10:53:55.791Z,45.80
2019-04-06T10:56:39.098Z,46.80
2019-04-06T11:00:00.319Z,47.10
2019-04-06T11:02:38.113Z,46.90
2019-04-06T11:05:24.977Z,47.60
2019-04-06T11:08:13.910Z,47.70
2019-04-06T11:11:03.994Z,48.80
2019-04-06T11:13:52.213Z,48.00
2019-04-06T11:17:01.044Z,48.80
2019-04-06T11:19:59.403Z,48.40
2019-04-06T11:22:58.624Z,48.70
2019-04-06T11:25:39.360Z,49.20
2019-04-06T11:28:40.603Z,48.40
2019-04-06T11:31:34.394Z,48.70
2019-04-06T11:34:23.066Z,49.80
2019-04-06T11:37:11.431Z,48.90
2019-04-06T11:40:08.908Z,48.70
2019-04-06T11:42:57.447Z,48.20
2019-04-06T11:45:46.645Z,47.80
2019-04-06T11:48:30.910Z,49.20
2019-04-06T11:51:27.092Z,49.90
2019-04-06T11:54:19.755Z,51.30
2019-04-06T11:57:13.522Z,52.50
2019-04-06T12:00:03.564Z,52.00
2019-04-06T12:02:54.781Z,52.80
2019-04-06T12:05:51.509Z,52.90
2019-04-06T12:08:41.740Z,52.60
2019-04-06T12:11:35.009Z,52.00
2019-04-06T12:14:18.952Z,51.80
2019-04-06T12:17:01.452Z,50.80
2019-04-06T12:19:51.872Z,51.90
2019-04-06T12:22:45.845Z,50.60
2019-04-06T12:25:25.861Z,50.20
2019-04-06T12:28:21.368Z,48.40
2019-04-06T12:31:14.114Z,47.30
2019-04-06T12:34:04.014Z,47.10
2019-04-06T12:36:51.638Z,48.30
2019-04-06T12:39:52.516Z,49.70
2019-04-06T12:42:26.635Z,51.20
2019-04-06T12:45:20.598Z,52.10
2019-04-06T12:48:06.685Z,52.90
2019-04-06T12:50:50.524Z,54.00
2019-04-06T12:53:49.907Z,53.90
2019-04-06T12:56:50.745Z,54.50
2019-04-06T12:59:47.281Z,54.30
2019-04-06T13:02:39.756Z,54.50
2019-04-06T13:05:38.865Z,56.00
2019-04-06T13:08:29.833Z,57.10
2019-04-06T13:11:19.703Z,57.10
2019-04-06T13:14:02.323Z,55.80
2019-04-06T13:16:52.891Z,55.80
2019-04-06T13:19:43.761Z,55.00
2019-04-06T13:22:23.989Z,52.30
2019-04-06T13:25:13.467Z,51.40
2019-04-06T13:28:02.216Z,50.70
2019-04-06T13:31:01.995Z,50.90
2019-04-06T13:33:46.054Z,50.50
2019-04-06T13:36:28.983Z,49.70
2019-04-06T13:39:34.377Z,49.50
2019-04-06T13:42:20.383Z,49.40
2019-04-06T13:45:09.716Z,49.70
2019-04-06T13:47:58.373Z,49.30
2019-04-06T13:50:48.691Z,49.90
2019-04-06T13:53:42.928Z,51.50
2019-04-06T13:56:26.431Z,52.40
2019-04-06T13:59:26.480Z,53.50
2019-04-06T14:02:17.554Z,53.30
2019-04-06T14:05:08.675Z,54.70
2019-04-06T14:07:54.413Z,54.60
2019-04-06T14:10:44.338Z,55.40
2019-04-06T14:13:29.287Z,54.70
2019-04-06T14:16:19.327Z,55.20
2019-04-06T14:19:01.855Z,54.80
2019-04-06T14:21:55.409Z,54.90
2019-04-06T14:24:46.670Z,53.90
2019-04-06T14:27:30.116Z,53.60
2019-04-06T14:30:20.646Z,53.00
2019-04-06T14:33:03.257Z,52.10
2019-04-06T14:35:52.971Z,51.90
2019-04-06T14:38:37.900Z,50.80
2019-04-06T14:41:43.221Z,51.90
2019-04-06T14:44:43.472Z,52.60
2019-04-06T14:47:52.405Z,53.10
2019-04-06T14:50:46.379Z,52.60
2019-04-06T14:53:40.306Z,53.80
2019-04-06T14:56:33.514Z,54.30
2019-04-06T14:59:20.748Z,54.50
2019-04-06T15:02:14.068Z,54.90
2019-04-06T15:05:04.493Z,55.50
2019-04-06T15:07:50.559Z,55.80
2019-04-06T15:10:40.668Z,56.30
2019-04-06T15:13:23.629Z,57.20
2019-04-06T15:16:14.704Z,57.80
2019-04-06T15:18:55.948Z,58.00
2019-04-06T15:21:52.729Z,58.40
2019-04-06T15:25:02.373Z,58.50
2019-04-06T15:27:41.851Z,59.30
2019-04-06T15:30:31.793Z,59.70
2019-04-06T15:33:21.989Z,60.30
2019-04-06T15:36:14.979Z,60.80
2019-04-06T15:38:54.058Z,61.10
2019-04-06T15:41:39.240Z,61.20
2019-04-06T15:44:29.020Z,61.00
2019-04-06T15:47:09.318Z,59.80
2019-04-06T15:49:59.159Z,59.70
2019-04-06T15:52:47.945Z,59.00
2019-04-06T15:55:42.406Z,59.50
2019-04-06T15:58:26.124Z,60.70
2019-04-06T16:01:14.653Z,60.50
2019-04-06T16:04:20.640Z,59.90
2019-04-06T16:07:11.636Z,59.70
2019-04-06T16:10:06.292Z,59.10
2019-04-06T16:12:55.799Z,59.40
2019-04-06T16:15:40.302Z,58.90
2019-04-06T16:18:30.884Z,59.20
2019-04-06T16:21:24.585Z,59.70
2019-04-06T16:24:20.921Z,61.30
2019-04-06T16:27:01.534Z,61.80
2019-04-06T16:29:52.719Z,61.80
2019-04-06T16:32:55.835Z,61.10
2019-04-06T16:35:45.294Z,61.80
2019-04-06T16:38:25.337Z,63.00
2019-04-06T16:41:15.775Z,68.80
2019-04-06T16:43:57.821Z,72.70
2019-04-06T16:46:47.450Z,75.80
2019-04-06T16:49:36.845Z,78.20
2019-04-06T16:52:28.852Z,79.80
2019-04-06T16:55:11.552Z,81.40
2019-04-06T16:58:10.835Z,82.50
2019-04-06T17:01:02.082Z,83.80
2019-04-06T17:04:11.767Z,85.00
2019-04-06T17:07:03.557Z,86.60
2019-04-06T17:09:53.261Z,89.70
2019-04-06T17:12:54.698Z,91.10
2019-04-06T17:15:56.140Z,92.50
2019-04-06T17:18:47.727Z,94.90
2019-04-06T17:21:31.962Z,97.90
2019-04-06T17:24:27.049Z,99.90
2019-04-06T17:27:21.040Z,99.90
2019-04-06T17:30:11.086Z,99.90
2019-04-06T17:32:58.413Z,99.90
2019-04-06T17:35:37.434Z,99.90
2019-04-06T17:38:31.869Z,99.90
2019-04-06T17:41:24.996Z,99.90
2019-04-06T17:44:26.938Z,99.90
2019-04-06T17:47:19.073Z,99.90
2019-04-06T17:50:13.528Z,99.90
2019-04-06T17:53:20.145Z,99.90
2019-04-06T17:56:15.875Z,99.90
2019-04-06T17:59:16.515Z,99.90
2019-04-06T18:02:07.638Z,99.90
2019-04-06T18:04:57.587Z,99.90
2019-04-06T18:07:48.904Z,99.90
2019-04-06T18:10:30.244Z,99.90
2019-04-06T18:13:23.784Z,99.90
2019-04-06T18:15:56.149Z,99.90
2019-04-06T18:18:29.142Z,99.90
2019-04-06T18:21:01.665Z,99.90
2019-04-06T18:23:35.597Z,99.90
2019-04-06T18:26:08.049Z,99.90
2019-04-06T18:28:40.793Z,99.90
2019-04-06T18:31:23.052Z,99.90
2019-04-06T18:33:56.992Z,99.90
2019-04-06T18:36:42.163Z,99.90
2019-04-06T18:39:15.182Z,99.90
2019-04-06T18:41:47.274Z,99.90
2019-04-06T18:44:20.010Z,99.90
2019-04-06T18:46:52.354Z,99.90
2019-04-06T18:49:25.446Z,99.90
2019-04-06T18:51:57.528Z,99.90
2019-04-06T18:54:29.571Z,99.90
2019-04-06T18:57:01.294Z,99.90
2019-04-06T18:59:34.144Z,99.90
2019-04-06T19:02:07.456Z,99.90
2019-04-06T19:04:41.131Z,99.90
2019-04-06T19:07:14.186Z,99.90
2019-04-06T19:09:47.385Z,99.90
2019-04-06T19:12:21.135Z,99.90
2019-04-06T19:14:53.550Z,99.90
2019-04-06T19:17:25.946Z,99.90
2019-04-06T19:19:58.428Z,99.90
2019-04-06T19:22:30.786Z,99.90
2019-04-06T19:25:03.771Z,99.90
2019-04-06T19:27:36.392Z,99.90
2019-04-06T19:30:11.049Z,99.90
2019-04-06T19:32:43.976Z,99.90
2019-04-06T19:35:16.990Z,99.90
2019-04-06T19:37:50.140Z,99.90
2019-04-06T19:40:23.606Z,99.90
2019-04-06T19:42:56.673Z,99.90
2019-04-06T19:45:28.834Z,99.90
2019-04-06T19:48:01.078Z,99.90
2019-04-06T19:50:35.334Z,99.90
2019-04-06T19:53:08.086Z,99.90
2019-04-06T19:55:41.032Z,99.90
2019-04-06T19:58:13.755Z,99.90
2019-04-06T20:00:46.903Z,99.90
2019-04-06T20:03:19.511Z,99.90
2019-04-06T20:05:52.403Z,99.90
2019-04-06T20:08:28.210Z,99.90
2019-04-06T20:11:02.115Z,99.90
2019-04-06T20:13:35.160Z,99.90
2019-04-06T20:16:07.789Z,99.90
2019-04-06T20:18:41.595Z,99.90
2019-04-06T20:21:14.432Z,99.90
2019-04-06T20:23:47.400Z,99.90
2019-04-06T20:26:20.750Z,99.90
2019-04-06T20:28:52.925Z,99.90
2019-04-06T20:31:25.113Z,99.90
2019-04-06T20:33:57.667Z,99.90
2019-04-06T20:36:29.569Z,99.90
2019-04-06T20:39:03.038Z,99.90
2019-04-06T20:41:36.189Z,99.90
2019-04-06T20:44:07.986Z,99.90
2019-04-06T20:46:40.549Z,99.90
2019-04-06T20:49:12.166Z,99.90
2019-04-06T20:51:44.516Z,99.90
2019-04-06T20:54:17.965Z,99.90
2019-04-06T20:56:56.218Z,99.90
2019-04-06T20:59:24.433Z,99.90
2019-04-06T21:01:57.021Z,99.90
2019-04-06T21:04:29.875Z,99.90
2019-04-06T21:07:02.494Z,99.90
2019-04-06T21:09:35.760Z,99.90
2019-04-06T21:12:09.413Z,99.90
2019-04-06T21:14:41.475Z,99.90
2019-04-06T21:17:14.099Z,99.90
2019-04-06T21:19:45.977Z,99.90
2019-04-06T21:22:17.786Z,99.90
2019-04-06T21:24:50.502Z,99.90
2019-04-06T21:27:21.728Z,99.90
2019-04-06T21:29:52.879Z,99.90
2019-04-06T21:32:23.992Z,99.90
2019-04-06T21:34:58.994Z,99.90
2019-04-06T21:37:30.377Z,99.90
2019-04-06T21:40:02.327Z,99.90
2019-04-06T21:42:33.769Z,99.90
2019-04-06T21:45:06.289Z,99.90
2019-04-06T21:47:38.697Z,99.90
2019-04-06T21:50:11.120Z,99.90
2019-04-06T21:52:42.758Z,99.90
2019-04-06T21:55:16.269Z,99.90
2019-04-06T21:57:48.373Z,99.90
2019-04-06T22:00:40.029Z,99.90
2019-04-06T22:03:11.184Z,99.90
2019-04-06T22:05:43.783Z,99.90
2019-04-06T22:08:14.724Z,99.90
2019-04-06T22:10:47.462Z,99.90
2019-04-06T22:13:19.486Z,99.90
2019-04-06T22:15:50.705Z,99.90
2019-04-06T22:18:22.082Z,99.90
2019-04-06T22:20:53.211Z,99.90
2019-04-06T22:23:39.855Z,99.90
2019-04-06T22:26:03.185Z,99.90
2019-04-06T22:28:37.564Z,99.90
2019-04-06T22:31:12.163Z,99.90
2019-04-06T22:33:48.158Z,99.90
2019-04-06T22:36:23.274Z,99.90
2019-04-06T22:38:56.392Z,99.90
2019-04-06T22:41:30.220Z,99.90
2019-04-06T22:44:05.870Z,99.90
2019-04-06T22:46:38.968Z,99.90
2019-04-06T22:49:13.338Z,99.90
2019-04-06T22:51:44.317Z,99.90
2019-04-06T22:54:17.341Z,99.90
2019-04-06T22:56:49.569Z,99.90
2019-04-06T22:59:22.181Z,99.90
2019-04-06T23:01:54.038Z,99.90
2019-04-06T23:04:32.024Z,99.90
2019-04-06T23:07:15.771Z,99.90
2019-04-06T23:09:48.210Z,99.90
2019-04-06T23:12:21.289Z,99.90
2019-04-06T23:14:53.791Z,99.90
2019-04-06T23:17:27.325Z,99.90
2019-04-06T23:19:59.022Z,99.90
2019-04-06T23:22:31.738Z,99.90
2019-04-06T23:25:02.892Z,99.90
2019-04-06T23:27:35.349Z,99.90
2019-04-06T23:30:07.624Z,99.90
2019-04-06T23:32:38.719Z,99.90
2019-04-06T23:35:11.963Z,99.90
2019-04-06T23:37:43.758Z,99.90
2019-04-06T23:40:15.548Z,99.90
2019-04-06T23:42:48.685Z,99.90
2019-04-06T23:45:20.751Z,99.90
2019-04-06T23:47:52.677Z,99.90
2019-04-06T23:50:24.785Z,99.90
2019-04-06T23:52:56.262Z,99.90
2019-04-06T23:55:28.196Z,99.90
2019-04-06T23:57:59.856Z,99.90
